Time;durP1;ratioP1;P1;durP2;ratioP2;P2;SDS_P1;SDS_P2;PMS_P1;PMS_P2;Temp;Humidity;BMP_temperature;BMP_pressure;BME280_temperature;BME280_humidity;BME280_pressure;Samples;Min_cycle;Max_cycle;Signal;HPM_P1;HPM_P2
2022/07/09 00:00:07;;;;;;;3.00;1.40;;;;;;;;;;10479403;28;20039;-75
2022/07/09 00:05:12;;;;;;;3.15;1.55;;;;;;;;;;10486034;28;20963;-73
2022/07/09 00:10:19;;;;;;;6.10;2.28;;;;;;;;;;10492064;28;20123;-77
2022/07/09 00:15:25;;;;;;;1.80;0.82;;;;;;;;;;10492460;28;20097;-73
2022/07/09 00:20:28;;;;;;;5.72;1.98;;;;;;;;;;10476062;28;20136;-75
2022/07/09 00:25:31;;;;;;;3.80;1.77;;;;;;;;;;10491002;28;20043;-75
2022/07/09 00:30:36;;;;;;;3.45;1.95;;;;;;;;;;10486511;28;20042;-76
2022/07/09 00:35:39;;;;;;;6.65;2.08;;;;;;;;;;10451446;28;20602;-75
2022/07/09 00:40:42;;;;;;;4.67;1.90;;;;;;;;;;10473336;28;20033;-75
2022/07/09 00:45:48;;;;;;;4.47;1.88;;;;;;;;;;10486144;28;20044;-76
2022/07/09 00:50:51;;;;;;;5.60;1.70;;;;;;;;;;10488695;28;20480;-74
2022/07/09 00:55:55;;;;;;;3.05;1.65;;;;;;;;;;10473961;28;20555;-73
2022/07/09 01:01:01;;;;;;;5.78;1.70;;;;;;;;;;10469295;28;20036;-74
2022/07/09 01:06:04;;;;;;;3.33;1.80;;;;;;;;;;10475974;28;20047;-74
2022/07/09 01:11:08;;;;;;;4.38;1.70;;;;;;;;;;10484216;28;20118;-76
2022/07/09 01:16:14;;;;;;;3.38;1.90;;;;;;;;;;10468980;28;20032;-75
2022/07/09 01:21:20;;;;;;;3.10;1.00;;;;;;;;;;10482983;28;20438;-76
2022/07/09 01:26:24;;;;;;;4.22;1.80;;;;;;;;;;10472324;28;20040;-75
2022/07/09 01:31:35;;;;;;;2.20;1.60;;;;;;;;;;10474281;28;20044;-76
2022/07/09 01:36:40;;;;;;;4.22;2.00;;;;;;;;;;10475792;28;20161;-73
2022/07/09 01:41:44;;;;;;;3.80;2.00;;;;;;;;;;10470775;28;20032;-74
2022/07/09 01:46:47;;;;;;;5.90;2.00;;;;;;;;;;10474393;28;20127;-75
2022/07/09 01:51:52;;;;;;;5.03;1.85;;;;;;;;;;10489109;28;20032;-77
2022/07/09 01:56:55;;;;;;;3.20;2.00;;;;;;;;;;10492295;28;20051;-76
2022/07/09 02:01:58;;;;;;;1.87;1.47;;;;;;;;;;10489963;28;20032;-75
2022/07/09 02:07:03;;;;;;;2.97;1.70;;;;;;;;;;10494926;28;20036;-77
2022/07/09 02:12:07;;;;;;;5.13;2.00;;;;;;;;;;10471008;28;20028;-75
2022/07/09 02:17:10;;;;;;;6.68;1.83;;;;;;;;;;10473733;28;20078;-76
2022/07/09 02:22:14;;;;;;;3.30;1.80;;;;;;;;;;10491570;28;20040;-77
2022/07/09 02:27:18;;;;;;;1.63;1.35;;;;;;;;;;10476309;28;20037;-74
2022/07/09 02:32:21;;;;;;;4.95;1.65;;;;;;;;;;10486870;28;20044;-75
2022/07/09 02:37:26;;;;;;;3.10;1.83;;;;;;;;;;10484860;28;20037;-75
2022/07/09 02:42:29;;;;;;;3.30;1.92;;;;;;;;;;10468747;28;20032;-75
2022/07/09 02:47:32;;;;;;;2.60;1.17;;;;;;;;;;10492139;28;20041;-77
2022/07/09 02:52:37;;;;;;;6.10;2.10;;;;;;;;;;10474559;28;20041;-75
2022/07/09 02:57:39;;;;;;;4.80;1.80;;;;;;;;;;10473367;28;20832;-76
2022/07/09 03:02:42;;;;;;;3.55;2.08;;;;;;;;;;10491138;28;20054;-75
2022/07/09 03:07:47;;;;;;;6.05;1.95;;;;;;;;;;10477726;28;20044;-75
2022/07/09 03:12:49;;;;;;;3.40;1.73;;;;;;;;;;10473697;28;20064;-74
2022/07/09 03:17:52;;;;;;;2.80;1.80;;;;;;;;;;10492486;28;20040;-74
2022/07/09 03:22:57;;;;;;;5.97;2.20;;;;;;;;;;10478770;28;20048;-75
2022/07/09 03:27:59;;;;;;;4.88;1.90;;;;;;;;;;10476482;28;20138;-76
2022/07/09 03:33:02;;;;;;;4.90;2.03;;;;;;;;;;10487363;28;20031;-75
2022/07/09 03:38:07;;;;;;;4.72;1.98;;;;;;;;;;10476553;28;20044;-76
2022/07/09 03:43:10;;;;;;;3.50;2.13;;;;;;;;;;10501696;28;20036;-76
2022/07/09 03:48:13;;;;;;;6.18;2.10;;;;;;;;;;10490812;28;20040;-74
2022/07/09 03:53:17;;;;;;;6.63;2.50;;;;;;;;;;10475162;28;20064;-73
2022/07/09 03:58:20;;;;;;;3.22;1.67;;;;;;;;;;10468108;28;20703;-76
2022/07/09 04:03:23;;;;;;;3.97;2.00;;;;;;;;;;10468722;28;20385;-76
2022/07/09 04:08:28;;;;;;;7.83;1.93;;;;;;;;;;10475785;28;20113;-73
2022/07/09 04:13:31;;;;;;;4.85;2.05;;;;;;;;;;10491232;28;20024;-75
2022/07/09 04:18:35;;;;;;;4.25;1.85;;;;;;;;;;10484173;28;20105;-75
2022/07/09 04:23:40;;;;;;;4.38;1.77;;;;;;;;;;10489644;28;20033;-75
2022/07/09 04:28:43;;;;;;;2.65;1.90;;;;;;;;;;10493968;28;20067;-75
2022/07/09 04:33:46;;;;;;;3.93;2.30;;;;;;;;;;10471045;28;20052;-74
2022/07/09 04:38:51;;;;;;;3.92;2.10;;;;;;;;;;10474514;28;20060;-76
2022/07/09 04:43:53;;;;;;;5.90;2.10;;;;;;;;;;10469388;28;20056;-74
2022/07/09 04:48:57;;;;;;;;;;;;;;;;;;10471611;28;20150;-75
2022/07/09 04:54:01;;;;;;;6.00;2.17;;;;;;;;;;10475430;28;21649;-74
2022/07/09 04:59:04;;;;;;;4.05;2.05;;;;;;;;;;10468191;28;20116;-76
2022/07/09 05:04:07;;;;;;;7.20;2.50;;;;;;;;;;10483872;28;20116;-76
2022/07/09 05:09:12;;;;;;;3.33;2.08;;;;;;;;;;10497762;28;20329;-75
2022/07/09 05:14:15;;;;;;;4.85;2.28;;;;;;;;;;10480199;28;20060;-74
2022/07/09 05:19:18;;;;;;;5.25;2.50;;;;;;;;;;10489193;28;20290;-76
2022/07/09 05:24:23;;;;;;;5.82;2.30;;;;;;;;;;10493356;28;20043;-75
2022/07/09 05:29:26;;;;;;;3.03;2.10;;;;;;;;;;10472610;28;20040;-74
2022/07/09 05:34:29;;;;;;;3.10;1.98;;;;;;;;;;10475451;28;20081;-77
2022/07/09 05:39:33;;;;;;;3.60;1.90;;;;;;;;;;10490323;28;20036;-76
2022/07/09 05:44:36;;;;;;;8.60;2.13;;;;;;;;;;10483782;28;20060;-75
2022/07/09 05:49:39;;;;;;;2.80;1.50;;;;;;;;;;10495930;28;20041;-74
2022/07/09 05:54:44;;;;;;;3.05;2.05;;;;;;;;;;10501226;28;20070;-75
2022/07/09 05:59:47;;;;;;;3.40;1.92;;;;;;;;;;10487143;28;20072;-76
2022/07/09 06:04:50;;;;;;;7.18;2.70;;;;;;;;;;10471504;28;20036;-77
2022/07/09 06:09:55;;;;;;;3.90;2.17;;;;;;;;;;10490973;28;20544;-76
2022/07/09 06:14:58;;;;;;;6.13;2.08;;;;;;;;;;10476411;28;20523;-77
2022/07/09 06:20:01;;;;;;;4.43;2.05;;;;;;;;;;10480982;28;20040;-75
2022/07/09 06:25:06;;;;;;;7.50;2.50;;;;;;;;;;10479005;28;20040;-75
2022/07/09 06:30:10;;;;;;;2.70;1.85;;;;;;;;;;10483841;28;20043;-75
2022/07/09 06:35:12;;;;;;;4.47;1.80;;;;;;;;;;10459851;28;20040;-75
2022/07/09 06:40:18;;;;;;;3.63;1.77;;;;;;;;;;10491149;28;20469;-73
2022/07/09 06:45:21;;;;;;;5.57;2.10;;;;;;;;;;10490676;28;20032;-74
2022/07/09 06:50:23;;;;;;;5.25;1.90;;;;;;;;;;10475662;28;20048;-74
2022/07/09 06:55:28;;;;;;;3.50;1.97;;;;;;;;;;10462764;28;20102;-74
2022/07/09 07:00:31;;;;;;;3.65;1.90;;;;;;;;;;10467155;28;20424;-76
2022/07/09 07:05:33;;;;;;;3.22;1.50;;;;;;;;;;10492719;28;20119;-76
2022/07/09 07:10:39;;;;;;;4.25;2.13;;;;;;;;;;10468895;28;20043;-76
2022/07/09 07:15:48;;;;;;;6.22;1.90;;;;;;;;;;10483591;28;20044;-75
2022/07/09 07:20:52;;;;;;;3.53;2.10;;;;;;;;;;10471660;28;20068;-75
2022/07/09 07:25:56;;;;;;;3.47;1.77;;;;;;;;;;10477873;28;20063;-76
2022/07/09 07:31:00;;;;;;;3.83;2.00;;;;;;;;;;10487945;28;20303;-75
2022/07/09 07:36:03;;;;;;;4.13;1.73;;;;;;;;;;10488741;28;20025;-76
2022/07/09 07:41:07;;;;;;;4.25;1.98;;;;;;;;;;10473050;28;21239;-76
2022/07/09 07:46:10;;;;;;;4.63;1.83;;;;;;;;;;10472826;28;20087;-76
2022/07/09 07:51:13;;;;;;;6.43;2.20;;;;;;;;;;10482889;28;20315;-74
2022/07/09 07:56:18;;;;;;;5.30;2.00;;;;;;;;;;10494400;28;20044;-76
2022/07/09 08:01:21;;;;;;;2.50;1.73;;;;;;;;;;10486061;28;20044;-74
2022/07/09 08:06:24;;;;;;;3.50;1.90;;;;;;;;;;10490627;28;20413;-74
2022/07/09 08:11:28;;;;;;;5.00;2.38;;;;;;;;;;10488067;28;20036;-74
2022/07/09 08:16:31;;;;;;;4.90;1.90;;;;;;;;;;10467250;28;20037;-75
2022/07/09 08:21:34;;;;;;;5.65;1.80;;;;;;;;;;10469244;28;20131;-76
2022/07/09 08:26:38;;;;;;;3.67;1.70;;;;;;;;;;10478683;28;20496;-75
2022/07/09 08:31:41;;;;;;;4.28;1.60;;;;;;;;;;10488363;28;20029;-77
2022/07/09 08:36:44;;;;;;;4.05;1.70;;;;;;;;;;10487268;28;20033;-76
2022/07/09 08:41:48;;;;;;;3.72;1.45;;;;;;;;;;10483902;28;20045;-76
2022/07/09 08:46:51;;;;;;;4.75;1.70;;;;;;;;;;10492055;28;20048;-72
2022/07/09 08:51:54;;;;;;;3.92;1.52;;;;;;;;;;10498630;28;20393;-73
2022/07/09 08:56:59;;;;;;;1.52;1.42;;;;;;;;;;10477702;28;20072;-73
2022/07/09 09:02:04;;;;;;;2.13;1.60;;;;;;;;;;10489739;28;20043;-72
2022/07/09 09:07:14;;;;;;;3.97;1.80;;;;;;;;;;10483405;28;20067;-73
2022/07/09 09:12:17;;;;;;;;;;;;;;;;;;10476128;28;20142;-74
2022/07/09 09:17:22;;;;;;;6.32;2.00;;;;;;;;;;10477569;28;19955;-73
2022/07/09 09:22:25;;;;;;;4.53;1.63;;;;;;;;;;10493791;28;20041;-72
2022/07/09 09:27:30;;;;;;;4.28;1.98;;;;;;;;;;10477849;28;20060;-72
2022/07/09 09:32:34;;;;;;;3.08;1.90;;;;;;;;;;10486273;28;20131;-72
2022/07/09 09:37:37;;;;;;;5.97;2.03;;;;;;;;;;10480345;28;20449;-73
2022/07/09 09:42:41;;;;;;;3.25;1.80;;;;;;;;;;10491157;28;20109;-73
2022/07/09 09:47:47;;;;;;;4.18;1.90;;;;;;;;;;10489765;28;20029;-72
2022/07/09 09:52:50;;;;;;;3.78;1.92;;;;;;;;;;10489376;28;20040;-71
2022/07/09 09:57:54;;;;;;;4.03;1.65;;;;;;;;;;10497997;28;20654;-71
2022/07/09 10:02:58;;;;;;;4.95;2.47;;;;;;;;;;10478905;28;20057;-72
2022/07/09 10:08:00;;;;;;;3.88;1.55;;;;;;;;;;10467672;28;20054;-74
2022/07/09 10:13:03;;;;;;;2.75;1.77;;;;;;;;;;10477494;28;20048;-81
2022/07/09 10:18:12;;;;;;;1.65;1.20;;;;;;;;;;10481788;28;20131;-81
2022/07/09 10:23:21;;;;;;;2.33;1.40;;;;;;;;;;10477258;28;20520;-73
2022/07/09 10:28:25;;;;;;;3.95;1.85;;;;;;;;;;10478774;28;20043;-71
2022/07/09 10:33:33;;;;;;;5.28;1.83;;;;;;;;;;10474520;28;20118;-73
2022/07/09 10:38:38;;;;;;;6.28;1.70;;;;;;;;;;10467381;28;20455;-71
2022/07/09 10:43:45;;;;;;;3.72;1.80;;;;;;;;;;10478890;28;20129;-73
2022/07/09 10:48:49;;;;;;;5.93;1.90;;;;;;;;;;10472618;28;20142;-73
2022/07/09 10:53:51;;;;;;;7.25;1.70;;;;;;;;;;10484819;28;20467;-74
2022/07/09 10:58:56;;;;;;;5.10;1.70;;;;;;;;;;10472388;28;20040;-74
2022/07/09 11:04:01;;;;;;;2.17;1.48;;;;;;;;;;10476754;28;20043;-74
2022/07/09 11:09:12;;;;;;;1.80;1.27;;;;;;;;;;10493943;28;20501;-74
2022/07/09 11:14:16;;;;;;;2.22;1.90;;;;;;;;;;10491011;28;20371;-75
2022/07/09 11:19:21;;;;;;;3.40;1.60;;;;;;;;;;10465367;28;20125;-75
2022/07/09 11:24:24;;;;;;;1.83;1.60;;;;;;;;;;10480993;28;20044;-75
2022/07/09 11:29:27;;;;;;;2.03;1.45;;;;;;;;;;10466613;28;20037;-75
2022/07/09 11:34:31;;;;;;;2.25;1.38;;;;;;;;;;10467298;28;20126;-74
2022/07/09 11:39:34;;;;;;;4.35;1.30;;;;;;;;;;10476706;28;20444;-74
2022/07/09 11:44:37;;;;;;;2.17;1.70;;;;;;;;;;10462478;28;20123;-75
2022/07/09 11:49:42;;;;;;;2.85;1.60;;;;;;;;;;10483477;28;20063;-75
2022/07/09 11:54:55;;;;;;;3.78;1.40;;;;;;;;;;10485475;28;20039;-75
2022/07/09 11:59:58;;;;;;;1.20;1.10;;;;;;;;;;10473981;28;20040;-74
2022/07/09 12:05:04;;;;;;;2.63;1.45;;;;;;;;;;10460861;28;20109;-72
2022/07/09 12:10:08;;;;;;;4.53;1.40;;;;;;;;;;10497833;28;20029;-72
2022/07/09 12:15:11;;;;;;;3.10;1.20;;;;;;;;;;10471108;28;20069;-72
2022/07/09 12:20:15;;;;;;;3.45;1.88;;;;;;;;;;10485049;28;20040;-72
2022/07/09 12:25:19;;;;;;;1.50;1.20;;;;;;;;;;10468396;28;20068;-71
2022/07/09 12:30:22;;;;;;;5.00;1.52;;;;;;;;;;10480235;28;20415;-72
2022/07/09 12:35:28;;;;;;;4.57;2.28;;;;;;;;;;10472383;28;20501;-72
2022/07/09 12:40:30;;;;;;;6.32;3.50;;;;;;;;;;10464936;28;20676;-71
2022/07/09 12:45:33;;;;;;;1.65;1.27;;;;;;;;;;10472821;28;20040;-73
2022/07/09 12:50:38;;;;;;;2.55;1.30;;;;;;;;;;10466582;28;20136;-74
2022/07/09 12:55:41;;;;;;;1.45;1.10;;;;;;;;;;10496565;28;20478;-72
2022/07/09 13:01:03;;;;;;;5.65;2.33;;;;;;;;;;10479630;28;20073;-70
2022/07/09 13:06:30;;;;;;;2.15;1.58;;;;;;;;;;10449030;28;20076;-73
2022/07/09 13:11:31;;;;;;;2.30;1.30;;;;;;;;;;10458377;28;20071;-73
2022/07/09 13:16:35;;;;;;;1.90;1.42;;;;;;;;;;10482921;28;20047;-72
2022/07/09 13:21:39;;;;;;;3.25;1.45;;;;;;;;;;10494328;28;20110;-72
2022/07/09 13:26:42;;;;;;;1.92;1.35;;;;;;;;;;10482486;28;20051;-73
2022/07/09 13:31:45;;;;;;;3.72;1.88;;;;;;;;;;10459160;28;20175;-73
2022/07/09 13:36:49;;;;;;;1.52;1.20;;;;;;;;;;10489355;28;20045;-73
2022/07/09 13:41:53;;;;;;;2.63;1.35;;;;;;;;;;10482054;28;20130;-73
2022/07/09 13:46:57;;;;;;;3.05;1.38;;;;;;;;;;10473785;28;20045;-72
2022/07/09 13:52:01;;;;;;;1.65;1.20;;;;;;;;;;10497905;28;20102;-73
2022/07/09 13:57:04;;;;;;;3.40;1.63;;;;;;;;;;10481702;28;20048;-73
2022/07/09 14:02:07;;;;;;;4.72;1.30;;;;;;;;;;10485053;28;20123;-73
2022/07/09 14:07:12;;;;;;;2.03;1.33;;;;;;;;;;10484640;28;20053;-73
2022/07/09 14:12:16;;;;;;;1.75;1.38;;;;;;;;;;10482985;28;20036;-74
2022/07/09 14:17:18;;;;;;;4.20;1.35;;;;;;;;;;10466836;28;20029;-74
2022/07/09 14:22:23;;;;;;;1.75;1.17;;;;;;;;;;10479448;28;20681;-73
2022/07/09 14:27:26;;;;;;;1.65;1.15;;;;;;;;;;10480102;28;20039;-74
2022/07/09 14:32:28;;;;;;;3.33;1.52;;;;;;;;;;10466557;28;20036;-75
2022/07/09 14:37:33;;;;;;;5.40;2.42;;;;;;;;;;10482798;28;20146;-74
2022/07/09 14:42:35;;;;;;;2.75;1.30;;;;;;;;;;10469214;28;20032;-74
2022/07/09 14:47:38;;;;;;;2.00;1.48;;;;;;;;;;10487646;28;20132;-80
2022/07/09 14:52:45;;;;;;;2.78;1.63;;;;;;;;;;10458966;28;20464;-81
2022/07/09 14:57:48;;;;;;;2.28;1.27;;;;;;;;;;10480836;28;20119;-81
2022/07/09 15:02:51;;;;;;;4.70;1.60;;;;;;;;;;10466919;28;20040;-81
2022/07/09 15:07:55;;;;;;;3.20;1.48;;;;;;;;;;10478873;28;20037;-79
2022/07/09 15:12:59;;;;;;;2.33;1.58;;;;;;;;;;10475886;28;20032;-81
2022/07/09 15:18:02;;;;;;;4.00;2.17;;;;;;;;;;10476244;28;20033;-80
2022/07/09 15:23:06;;;;;;;4.60;1.52;;;;;;;;;;10498469;28;20041;-82
2022/07/09 15:28:12;;;;;;;2.50;1.50;;;;;;;;;;10483162;28;20109;-82
2022/07/09 15:33:16;;;;;;;2.85;1.63;;;;;;;;;;10480823;28;20052;-80
2022/07/09 15:38:20;;;;;;;3.83;1.40;;;;;;;;;;10483586;28;20044;-82
2022/07/09 15:43:23;;;;;;;3.83;1.23;;;;;;;;;;10496906;28;20046;-82
2022/07/09 15:48:26;;;;;;;3.10;1.10;;;;;;;;;;10488248;28;20032;-82
2022/07/09 15:53:31;;;;;;;1.70;1.10;;;;;;;;;;10484866;28;20048;-83
2022/07/09 15:58:33;;;;;;;2.15;1.25;;;;;;;;;;10483029;28;20050;-81
2022/07/09 16:03:37;;;;;;;1.70;1.40;;;;;;;;;;10505928;28;20063;-84
2022/07/09 16:08:41;;;;;;;1.30;1.20;;;;;;;;;;10485158;28;20451;-81
2022/07/09 16:13:44;;;;;;;1.92;1.05;;;;;;;;;;10485035;28;20127;-81
2022/07/09 16:18:47;;;;;;;1.40;0.93;;;;;;;;;;10501327;28;20032;-80
2022/07/09 16:23:51;;;;;;;2.53;1.60;;;;;;;;;;10526188;28;20086;-80
2022/07/09 16:28:54;;;;;;;0.80;0.80;;;;;;;;;;10483140;28;20051;-81
2022/07/09 16:33:57;;;;;;;;;;;;;;;;;;10493376;28;20097;-80
2022/07/09 16:39:02;;;;;;;2.95;1.10;;;;;;;;;;10474870;28;20406;-78
2022/07/09 16:44:05;;;;;;;4.40;1.30;;;;;;;;;;10492714;28;20454;-81
2022/07/09 16:49:08;;;;;;;1.88;1.42;;;;;;;;;;10471661;28;20112;-81
2022/07/09 16:54:12;;;;;;;5.15;1.50;;;;;;;;;;10470146;28;20058;-81
2022/07/09 16:59:15;;;;;;;2.88;1.42;;;;;;;;;;10479927;28;20048;-80
2022/07/09 17:04:18;;;;;;;4.72;1.55;;;;;;;;;;10485433;28;20036;-80
2022/07/09 17:09:20;;;;;;;;;;;;;;;;;;10486343;28;20037;-81
2022/07/09 17:14:24;;;;;;;2.33;1.40;;;;;;;;;;10504161;28;20256;-82
2022/07/09 17:19:27;;;;;;;2.83;1.50;;;;;;;;;;10493065;28;20134;-83
2022/07/09 17:24:30;;;;;;;3.47;1.60;;;;;;;;;;10491820;28;20041;-82
2022/07/09 17:29:35;;;;;;;2.72;1.67;;;;;;;;;;10504983;28;20033;-82
2022/07/09 17:34:38;;;;;;;1.73;1.30;;;;;;;;;;10487206;28;20044;-83
2022/07/09 17:39:41;;;;;;;3.38;2.00;;;;;;;;;;10503777;28;20029;-83
2022/07/09 17:44:45;;;;;;;2.95;1.50;;;;;;;;;;10501202;28;20132;-83
2022/07/09 17:49:50;;;;;;;9.23;5.00;;;;;;;;;;10479837;28;20033;-83
2022/07/09 17:54:52;;;;;;;1.23;1.10;;;;;;;;;;10499198;28;20039;-83
2022/07/09 17:59:57;;;;;;;3.22;1.48;;;;;;;;;;10510046;28;20071;-81
2022/07/09 18:05:07;;;;;;;1.80;1.25;;;;;;;;;;10490402;28;20037;-82
2022/07/09 18:10:12;;;;;;;4.10;1.30;;;;;;;;;;10469834;28;20055;-82
2022/07/09 18:15:16;;;;;;;2.30;1.42;;;;;;;;;;10485680;28;20044;-81
2022/07/09 18:20:19;;;;;;;1.77;1.52;;;;;;;;;;10482845;28;20502;-82
2022/07/09 18:25:22;;;;;;;;;;;;;;;;;;10502300;28;20032;-80
2022/07/09 18:30:27;;;;;;;8.20;3.17;;;;;;;;;;10495449;28;19924;-80
2022/07/09 18:35:30;;;;;;;2.85;1.80;;;;;;;;;;10482559;28;20040;-83
2022/07/09 18:40:33;;;;;;;6.22;2.25;;;;;;;;;;10488332;28;20051;-83
2022/07/09 18:45:38;;;;;;;5.70;1.98;;;;;;;;;;10494057;28;20044;-81
2022/07/09 18:50:41;;;;;;;5.88;1.95;;;;;;;;;;10475167;28;20032;-81
2022/07/09 18:55:44;;;;;;;7.78;2.17;;;;;;;;;;10487629;28;20042;-81
2022/07/09 19:00:49;;;;;;;5.18;1.98;;;;;;;;;;10472776;28;20080;-83
2022/07/09 19:05:52;;;;;;;5.20;2.08;;;;;;;;;;10484260;28;20039;-82
2022/07/09 19:10:55;;;;;;;9.18;2.80;;;;;;;;;;10483903;28;20032;-81
2022/07/09 19:15:58;;;;;;;;;;;;;;;;;;10467158;28;20779;-80
2022/07/09 19:21:03;;;;;;;6.67;2.73;;;;;;;;;;10489392;28;19928;-82
2022/07/09 19:26:13;;;;;;;9.65;4.80;;;;;;;;;;10489228;28;20299;-81
2022/07/09 19:36:44;;;;;;;2.50;1.50;;;;;;;;;;10478029;28;20036;-82
2022/07/09 19:41:49;;;;;;;3.70;1.70;;;;;;;;;;10480643;28;20372;-81
2022/07/09 19:46:53;;;;;;;4.30;1.90;;;;;;;;;;10479043;28;20108;-83
2022/07/09 19:51:58;;;;;;;5.60;2.63;;;;;;;;;;10474897;28;20460;-82
2022/07/09 19:57:00;;;;;;;4.18;2.20;;;;;;;;;;10492821;28;20032;-82
2022/07/09 20:02:03;;;;;;;5.88;3.03;;;;;;;;;;10482500;28;20041;-81
2022/07/09 20:07:08;;;;;;;7.40;4.45;;;;;;;;;;10492510;28;20032;-81
2022/07/09 20:12:11;;;;;;;9.05;3.50;;;;;;;;;;10481890;28;20037;-81
2022/07/09 20:17:13;;;;;;;6.53;2.83;;;;;;;;;;10498276;28;20044;-80
2022/07/09 20:22:18;;;;;;;6.28;2.95;;;;;;;;;;10459780;28;20045;-82
2022/07/09 20:27:21;;;;;;;6.03;2.95;;;;;;;;;;10475551;28;20044;-81
2022/07/09 20:32:24;;;;;;;10.02;4.07;;;;;;;;;;10494566;28;20566;-82
2022/07/09 20:37:28;;;;;;;8.40;2.95;;;;;;;;;;10483863;28;20075;-81
2022/07/09 20:42:31;;;;;;;3.92;2.10;;;;;;;;;;10481058;28;20044;-81
2022/07/09 20:47:34;;;;;;;5.40;1.90;;;;;;;;;;10509300;28;20036;-81
2022/07/09 20:52:38;;;;;;;9.68;2.92;;;;;;;;;;10506468;28;20039;-79
2022/07/09 20:57:40;;;;;;;8.88;3.65;;;;;;;;;;10510088;28;20093;-79
2022/07/09 21:02:43;;;;;;;6.00;2.37;;;;;;;;;;10509093;28;20037;-87
2022/07/09 21:07:48;;;;;;;6.20;2.30;;;;;;;;;;10518482;28;20298;-84
2022/07/09 21:12:50;;;;;;;6.80;2.10;;;;;;;;;;10476732;28;22260;-76
2022/07/09 21:23:15;;;;;;;6.50;2.60;;;;;;;;;;10492867;28;20040;-74
2022/07/09 21:28:18;;;;;;;6.10;2.30;;;;;;;;;;10493958;28;20086;-76
2022/07/09 21:33:20;;;;;;;6.60;2.55;;;;;;;;;;10484197;28;20071;-75
2022/07/09 21:38:25;;;;;;;4.10;2.30;;;;;;;;;;10466872;28;20041;-75
2022/07/09 21:43:27;;;;;;;9.77;2.95;;;;;;;;;;10474225;28;20055;-74
2022/07/09 21:48:30;;;;;;;5.57;2.30;;;;;;;;;;10492782;28;20485;-75
2022/07/09 21:53:34;;;;;;;4.80;2.10;;;;;;;;;;10471872;28;20495;-74
2022/07/09 21:58:37;;;;;;;3.38;1.95;;;;;;;;;;10472926;28;20033;-76
2022/07/09 22:03:43;;;;;;;5.55;2.17;;;;;;;;;;10473909;28;20200;-73
2022/07/09 22:08:47;;;;;;;3.83;2.10;;;;;;;;;;10472381;28;20078;-75
2022/07/09 22:13:50;;;;;;;4.80;1.85;;;;;;;;;;10497119;28;20627;-75
2022/07/09 22:18:52;;;;;;;5.00;1.90;;;;;;;;;;10493702;28;20581;-74
2022/07/09 22:23:56;;;;;;;3.90;2.10;;;;;;;;;;10490555;28;20343;-75
2022/07/09 22:29:01;;;;;;;3.15;1.92;;;;;;;;;;10493208;28;20295;-76
2022/07/09 22:34:06;;;;;;;5.40;2.72;;;;;;;;;;10497388;28;20737;-76
2022/07/09 22:39:10;;;;;;;3.95;2.20;;;;;;;;;;10477013;28;20692;-75
2022/07/09 22:44:13;;;;;;;4.90;2.20;;;;;;;;;;10495183;28;20438;-75
2022/07/09 22:49:16;;;;;;;3.73;2.30;;;;;;;;;;10479860;28;20067;-75
2022/07/09 22:54:21;;;;;;;4.80;2.00;;;;;;;;;;10472852;28;20572;-74
2022/07/09 22:59:23;;;;;;;7.10;2.38;;;;;;;;;;10490115;28;20048;-75
2022/07/09 23:04:26;;;;;;;3.35;2.30;;;;;;;;;;10475744;28;20040;-75
2022/07/09 23:09:31;;;;;;;3.33;2.35;;;;;;;;;;10476786;28;20062;-76
2022/07/09 23:14:34;;;;;;;4.40;2.42;;;;;;;;;;10493548;28;20044;-74
2022/07/09 23:19:37;;;;;;;8.95;2.85;;;;;;;;;;10475671;28;20043;-73
2022/07/09 23:24:41;;;;;;;4.93;2.57;;;;;;;;;;10475792;28;20478;-76
2022/07/09 23:29:43;;;;;;;4.30;2.45;;;;;;;;;;10491433;28;20037;-74
2022/07/09 23:34:46;;;;;;;5.32;2.80;;;;;;;;;;10492379;28;20427;-75
2022/07/09 23:39:50;;;;;;;3.87;2.80;;;;;;;;;;10475595;28;20063;-74
2022/07/09 23:44:53;;;;;;;5.35;2.90;;;;;;;;;;10493768;28;20357;-75
2022/07/09 23:49:56;;;;;;;6.70;3.33;;;;;;;;;;10477609;28;20056;-75
2022/07/09 23:55:00;;;;;;;3.93;2.70;;;;;;;;;;10475735;28;20134;-75
